createdAt,value
2018-08-30T00:00:21.980Z,69.77
2018-08-30T00:05:19.426Z,61.40
2018-08-30T00:10:16.851Z,65.47
2018-08-30T00:15:14.187Z,63.53
2018-08-30T00:20:12.689Z,68.43
2018-08-30T00:25:10.072Z,66.80
2018-08-30T00:30:07.476Z,58.27
2018-08-30T00:35:05.492Z,55.00
2018-08-30T00:40:02.905Z,49.63
2018-08-30T00:45:00.601Z,53.80
2018-08-30T00:49:59.588Z,52.10
2018-08-30T00:54:57.075Z,30.47
2018-08-30T00:59:54.459Z,47.27
2018-08-30T01:04:51.823Z,44.17
2018-08-30T01:09:49.209Z,41.60
2018-08-30T01:14:46.580Z,51.40
2018-08-30T01:19:50.595Z,51.53
2018-08-30T01:24:48.327Z,43.20
2018-08-30T01:29:45.696Z,44.70
2018-08-30T01:34:43.067Z,44.23
2018-08-30T01:39:40.437Z,41.53
2018-08-30T01:44:37.805Z,43.00
2018-08-30T01:49:39.520Z,46.87
2018-08-30T01:54:36.994Z,42.63
2018-08-30T01:59:34.363Z,47.03
2018-08-30T02:04:31.743Z,46.00
2018-08-30T02:09:29.437Z,41.73
2018-08-30T02:14:27.291Z,37.63
2018-08-30T02:19:35.323Z,39.73
2018-08-30T02:24:32.809Z,40.80
2018-08-30T02:29:30.259Z,45.60
2018-08-30T02:34:28.034Z,40.37
2018-08-30T02:39:26.436Z,39.77
2018-08-30T02:44:24.860Z,38.03
2018-08-30T02:49:25.744Z,36.87
2018-08-30T02:54:23.184Z,42.60
2018-08-30T02:59:21.132Z,39.63
2018-08-30T03:04:18.511Z,31.17
2018-08-30T03:09:15.893Z,31.07
2018-08-30T03:14:13.355Z,25.00
2018-08-30T03:19:12.267Z,22.20
2018-08-30T03:24:10.185Z,12.90
2018-08-30T03:29:07.576Z,17.13
2018-08-30T03:34:04.979Z,16.50
2018-08-30T03:39:02.446Z,16.87
2018-08-30T03:43:59.822Z,20.90
2018-08-30T03:48:57.489Z,20.90
2018-08-30T03:53:54.876Z,18.20
2018-08-30T03:58:52.287Z,24.17
2018-08-30T04:03:49.679Z,34.53
2018-08-30T04:08:47.082Z,28.30
2018-08-30T04:13:44.466Z,42.83
2018-08-30T04:18:41.878Z,36.57
2018-08-30T04:23:39.259Z,40.30
2018-08-30T04:28:36.651Z,45.77
2018-08-30T04:33:34.038Z,49.50
2018-08-30T04:38:31.528Z,56.30
2018-08-30T04:43:28.959Z,56.30
2018-08-30T04:48:27.036Z,60.83
2018-08-30T04:53:24.459Z,55.63
2018-08-30T04:58:21.894Z,63.40
2018-08-30T05:03:19.347Z,62.37
2018-08-30T05:08:16.794Z,63.33
2018-08-30T05:13:14.303Z,66.23
2018-08-30T05:18:12.426Z,62.13
2018-08-30T05:23:09.864Z,62.67
2018-08-30T05:28:07.691Z,71.33
2018-08-30T05:33:05.624Z,65.43
2018-08-30T05:38:03.007Z,63.23
2018-08-30T05:43:00.408Z,68.77
2018-08-30T05:47:57.807Z,67.83
2018-08-30T05:52:55.251Z,69.80
2018-08-30T05:57:52.662Z,65.93
2018-08-30T06:02:50.079Z,62.70
2018-08-30T06:07:47.520Z,68.37
2018-08-30T06:12:45.036Z,100.63
2018-08-30T06:17:42.487Z,53.50
2018-08-30T06:22:39.919Z,63.13
2018-08-30T06:27:37.354Z,62.20
2018-08-30T06:32:34.840Z,55.40
2018-08-30T06:37:32.907Z,60.47
2018-08-30T06:42:30.320Z,70.00
2018-08-30T06:47:27.782Z,62.80
2018-08-30T06:52:25.232Z,57.77
2018-08-30T06:57:22.707Z,55.93
2018-08-30T07:02:20.515Z,60.33
2018-08-30T07:07:17.922Z,62.10
2018-08-30T07:12:15.347Z,61.97
2018-08-30T07:17:12.730Z,55.17
2018-08-30T07:22:10.146Z,54.80
2018-08-30T07:27:07.539Z,60.27
2018-08-30T07:32:05.705Z,53.93
2018-08-30T07:37:03.122Z,63.33
2018-08-30T07:42:00.547Z,54.13
2018-08-30T07:46:57.930Z,52.10
2018-08-30T07:51:55.348Z,42.40
2018-08-30T07:56:52.734Z,57.57
2018-08-30T08:01:50.106Z,36.53
2018-08-30T08:06:47.530Z,46.60
2018-08-30T08:11:44.965Z,61.13
2018-08-30T08:16:42.351Z,47.50
2018-08-30T08:21:39.751Z,48.17
2018-08-30T08:26:37.147Z,40.63
2018-08-30T08:31:34.538Z,45.87
2018-08-30T08:36:31.931Z,23.97
2018-08-30T08:41:29.579Z,48.87
2018-08-30T08:46:26.976Z,43.23
2018-08-30T08:51:24.368Z,27.27
2018-08-30T08:56:21.790Z,33.50
2018-08-30T09:01:19.292Z,36.27
2018-08-30T09:06:16.727Z,43.37
2018-08-30T09:11:14.157Z,29.97
2018-08-30T09:16:11.996Z,28.27
2018-08-30T09:21:09.543Z,31.80
2018-08-30T09:26:06.983Z,23.87
2018-08-30T09:31:04.708Z,32.30
2018-08-30T09:36:02.044Z,15.40
2018-08-30T09:40:59.466Z,20.17
2018-08-30T09:45:56.920Z,20.53
2018-08-30T09:50:54.347Z,14.90
2018-08-30T09:55:51.756Z,10.77
2018-08-30T10:00:54.871Z,14.70
2018-08-30T10:05:52.304Z,10.57
2018-08-30T10:10:49.699Z,21.07
2018-08-30T10:15:47.157Z,13.90
2018-08-30T10:20:44.738Z,13.17
2018-08-30T10:25:43.175Z,18.23
2018-08-30T10:30:40.672Z,17.70
2018-08-30T10:35:38.146Z,17.07
2018-08-30T10:40:35.548Z,16.30
2018-08-30T10:45:32.975Z,16.50
2018-08-30T10:50:31.007Z,13.50
2018-08-30T10:55:28.411Z,13.00
2018-08-30T11:00:25.866Z,16.90
2018-08-30T11:05:23.294Z,11.00
2018-08-30T11:10:20.713Z,10.97
2018-08-30T11:15:19.069Z,8.70
2018-08-30T11:20:17.513Z,13.60
2018-08-30T11:25:14.916Z,11.03
2018-08-30T11:30:12.372Z,10.67
2018-08-30T11:35:09.774Z,14.90
2018-08-30T11:40:07.207Z,8.17
2018-08-30T11:45:05.404Z,12.97
2018-08-30T11:50:03.960Z,7.37
2018-08-30T11:55:01.642Z,4.90
2018-08-30T11:59:59.043Z,5.13
2018-08-30T12:04:56.515Z,12.43
2018-08-30T12:09:53.985Z,7.00
2018-08-30T12:14:51.413Z,9.43
2018-08-30T12:19:54.608Z,11.73
2018-08-30T12:24:52.071Z,9.87
2018-08-30T12:29:49.495Z,14.80
2018-08-30T12:34:47.439Z,9.53
2018-08-30T12:39:44.953Z,8.50
2018-08-30T12:44:42.387Z,4.23
2018-08-30T12:49:45.477Z,9.60
2018-08-30T12:54:43.079Z,5.40
2018-08-30T12:59:41.940Z,9.07
2018-08-30T13:04:39.553Z,8.00
2018-08-30T13:09:36.908Z,7.50
2018-08-30T13:14:34.638Z,8.73
2018-08-30T13:19:42.353Z,7.30
2018-08-30T13:24:39.870Z,4.40
2018-08-30T13:29:37.345Z,3.77
2018-08-30T13:34:35.006Z,1.73
2018-08-30T13:39:32.475Z,1.77
2018-08-30T13:44:29.921Z,2.37
2018-08-30T13:49:31.627Z,4.80
2018-08-30T13:54:29.922Z,2.70
2018-08-30T13:59:27.794Z,1.90
2018-08-30T14:04:25.028Z,3.57
2018-08-30T14:09:22.444Z,5.37
2018-08-30T14:14:20.011Z,31.13
2018-08-30T14:19:28.059Z,7.60
2018-08-30T14:24:25.660Z,3.60
2018-08-30T14:29:25.516Z,5.00
2018-08-30T14:34:22.938Z,7.80
2018-08-30T14:39:25.230Z,5.77
2018-08-30T14:44:27.615Z,4.17
2018-08-30T14:49:29.775Z,2.23
2018-08-30T14:54:30.348Z,4.80
2018-08-30T14:59:29.971Z,3.27
2018-08-30T15:04:31.202Z,3.97
2018-08-30T15:09:30.850Z,8.90
2018-08-30T15:14:28.303Z,2.80
2018-08-30T15:19:35.019Z,2.63
2018-08-30T15:24:32.648Z,3.00
2018-08-30T15:29:30.100Z,3.80
2018-08-30T15:34:27.534Z,1.70
2018-08-30T15:39:24.972Z,1.03
2018-08-30T15:44:22.366Z,9.37
2018-08-30T15:49:26.238Z,3.23
2018-08-30T15:54:23.831Z,15.57
2018-08-30T15:59:21.268Z,2.53
2018-08-30T16:04:18.652Z,3.53
2018-08-30T16:09:16.056Z,7.17
2018-08-30T16:14:13.670Z,5.50
2018-08-30T16:19:12.727Z,5.47
2018-08-30T16:24:10.194Z,8.23
2018-08-30T16:29:07.673Z,9.87
2018-08-30T16:34:05.121Z,6.13
2018-08-30T16:39:03.826Z,4.67
2018-08-30T16:44:01.237Z,9.00
2018-08-30T16:48:59.541Z,11.47
2018-08-30T16:53:56.955Z,4.13
2018-08-30T16:58:54.572Z,7.23
2018-08-30T17:03:51.984Z,13.27
2018-08-30T17:08:49.465Z,9.50
2018-08-30T17:13:46.857Z,11.53
2018-08-30T17:18:46.387Z,16.77
2018-08-30T17:23:44.340Z,10.27
2018-08-30T17:28:41.762Z,13.67
2018-08-30T17:33:39.166Z,13.57
2018-08-30T17:38:36.603Z,21.67
2018-08-30T17:43:34.007Z,5.47
2018-08-30T17:48:31.439Z,16.23
2018-08-30T17:53:28.899Z,11.03
2018-08-30T17:58:26.386Z,6.53
2018-08-30T18:03:23.862Z,15.50
2018-08-30T18:08:21.302Z,19.97
2018-08-30T18:13:18.696Z,3.50
2018-08-30T18:18:16.188Z,14.30
2018-08-30T18:23:13.623Z,10.87
2018-08-30T18:28:11.045Z,14.67
2018-08-30T18:33:08.523Z,15.47
2018-08-30T18:38:05.935Z,10.00
2018-08-30T18:43:03.375Z,22.50
2018-08-30T18:48:00.740Z,18.73
2018-08-30T18:52:58.134Z,9.53
2018-08-30T18:57:55.535Z,9.10
2018-08-30T19:02:52.916Z,11.87
2018-08-30T19:07:50.356Z,11.70
2018-08-30T19:12:47.729Z,7.80
2018-08-30T19:17:50.711Z,12.93
2018-08-30T19:22:48.108Z,11.60
2018-08-30T19:27:45.820Z,10.30
2018-08-30T19:32:43.968Z,15.03
2018-08-30T19:37:41.339Z,19.00
2018-08-30T19:42:38.736Z,8.83
2018-08-30T19:47:36.122Z,10.93
2018-08-30T19:52:33.628Z,18.03
2018-08-30T19:57:31.026Z,11.67
2018-08-30T20:02:29.429Z,11.93
2018-08-30T20:07:26.807Z,9.93
2018-08-30T20:12:24.255Z,8.03
2018-08-30T20:17:21.641Z,8.10
2018-08-30T20:22:19.123Z,11.77
2018-08-30T20:27:16.531Z,10.30
2018-08-30T20:32:13.967Z,8.30
2018-08-30T20:37:11.567Z,15.77
2018-08-30T20:42:08.959Z,19.73
2018-08-30T20:47:07.279Z,17.80
2018-08-30T20:52:04.867Z,8.33
2018-08-30T20:57:02.307Z,8.50
2018-08-30T21:02:01.885Z,10.90
2018-08-30T21:06:59.255Z,13.23
2018-08-30T21:11:56.639Z,11.10
2018-08-30T21:16:54.011Z,16.73
2018-08-30T21:21:51.423Z,21.33
2018-08-30T21:26:48.807Z,18.03
2018-08-30T21:31:46.200Z,7.93
2018-08-30T21:36:43.575Z,16.07
2018-08-30T21:41:40.999Z,18.37
2018-08-30T21:46:38.671Z,8.13
2018-08-30T21:51:36.135Z,10.23
2018-08-30T21:56:33.526Z,9.60
2018-08-30T22:01:30.911Z,9.97
2018-08-30T22:06:28.322Z,14.53
2018-08-30T22:11:25.694Z,16.00
2018-08-30T22:16:23.155Z,11.17
2018-08-30T22:21:20.584Z,15.43
2018-08-30T22:26:17.966Z,22.57
2018-08-30T22:31:15.390Z,10.40
2018-08-30T22:36:12.850Z,10.50
2018-08-30T22:41:10.797Z,10.43
2018-08-30T22:46:08.160Z,6.50
2018-08-30T22:51:05.604Z,8.97
2018-08-30T22:56:02.978Z,6.80
2018-08-30T23:01:00.338Z,12.70
2018-08-30T23:05:57.799Z,28.27
2018-08-30T23:10:55.175Z,9.63
2018-08-30T23:15:52.607Z,16.13
2018-08-30T23:20:50.015Z,6.80
2018-08-30T23:25:47.715Z,4.93
2018-08-30T23:30:45.113Z,10.13
2018-08-30T23:35:42.614Z,12.33
2018-08-30T23:40:40.023Z,17.83
2018-08-30T23:45:38.080Z,8.37
2018-08-30T23:50:39.481Z,4.63
2018-08-30T23:55:38.193Z,18.60
